Time;durP1;ratioP1;P1;durP2;ratioP2;P2;SDS_P1;SDS_P2;PMS_P1;PMS_P2;Temp;Humidity;BMP_temperature;BMP_pressure;BME280_temperature;BME280_humidity;BME280_pressure;Samples;Min_cycle;Max_cycle;Signal;HPM_P1;HPM_P2
2023/03/05 00:01:10;;;;;;;2.27;1.83;;;;;;;12.09;45.81;94636.53;5030636;28;20470;-59
2023/03/05 00:03:37;;;;;;;0.70;0.70;;;;;;;12.43;44.86;94633.97;5030438;28;20650;-59
2023/03/05 00:06:04;;;;;;;0.20;0.20;;;;;;;12.09;45.54;94625.25;5023447;28;20441;-60
2023/03/05 00:08:32;;;;;;;1.60;1.00;;;;;;;12.37;44.56;94624.53;5030862;28;20459;-60
2023/03/05 00:11:02;;;;;;;0.90;0.90;;;;;;;12.19;45.41;94623.34;5030309;28;20440;-60
2023/03/05 00:13:29;;;;;;;0.60;0.57;;;;;;;12.23;45.46;94618.31;5030859;28;20472;-60
2023/03/05 00:15:56;;;;;;;3.97;1.43;;;;;;;12.14;45.28;94625.22;5025724;28;20452;-58
2023/03/05 00:18:23;;;;;;;0.20;0.20;;;;;;;12.23;45.26;94618.31;5031764;28;20459;-59
2023/03/05 00:20:50;;;;;;;0.50;0.50;;;;;;;12.23;45.58;94624.38;5031188;28;20486;-59
2023/03/05 00:23:17;;;;;;;0.97;0.97;;;;;;;11.79;46.44;94625.38;5031450;28;22231;-59
2023/03/05 00:25:45;;;;;;;1.30;1.20;;;;;;;12.20;45.69;94624.13;5028590;28;20490;-59
2023/03/05 00:28:12;;;;;;;1.90;1.17;;;;;;;12.12;45.76;94611.56;5020382;28;20880;-59
2023/03/05 00:30:40;;;;;;;3.00;0.67;;;;;;;12.23;45.35;94608.63;5027788;28;20439;-60
2023/03/05 00:33:07;;;;;;;0.07;0.07;;;;;;;11.96;45.59;94602.19;5025049;28;20544;-59
2023/03/05 00:35:41;;;;;;;1.60;1.50;;;;;;;12.12;45.23;94601.06;5027453;28;20458;-60
2023/03/05 00:38:10;;;;;;;2.10;1.70;;;;;;;12.18;45.14;94605.22;5030978;28;20444;-60
2023/03/05 00:40:39;;;;;;;0.97;0.60;;;;;;;12.39;44.55;94606.66;5025844;28;21105;-60
2023/03/05 00:43:07;;;;;;;0.73;0.73;;;;;;;12.21;44.74;94599.44;5030335;28;20484;-60
2023/03/05 00:45:34;;;;;;;0.97;0.97;;;;;;;12.16;44.89;94596.84;5027807;28;20463;-60
2023/03/05 00:48:02;;;;;;;2.17;1.93;;;;;;;12.09;45.21;94593.72;5029044;28;20986;-60
2023/03/05 00:50:30;;;;;;;2.17;1.03;;;;;;;11.38;46.99;94605.56;5030689;28;20436;-60
2023/03/05 00:52:58;;;;;;;0.10;0.10;;;;;;;11.59;46.24;94596.53;5045911;28;20444;-59
2023/03/05 00:55:24;;;;;;;1.47;1.40;;;;;;;11.89;45.51;94588.59;5027787;28;21033;-59
2023/03/05 00:57:51;;;;;;;1.40;0.57;;;;;;;11.75;46.22;94579.75;5030616;28;20439;-61
2023/03/05 01:00:18;;;;;;;0.63;0.63;;;;;;;11.75;46.04;94580.50;5030711;28;20444;-60
2023/03/05 01:02:45;;;;;;;0.93;0.93;;;;;;;11.79;45.73;94589.41;5030396;28;21017;-60
2023/03/05 01:05:13;;;;;;;0.10;0.10;;;;;;;11.73;45.85;94598.34;5029449;28;20592;-59
2023/03/05 01:07:40;;;;;;;2.30;1.55;;;;;;;11.72;45.58;94577.63;5030234;28;20462;-60
2023/03/05 01:10:08;;;;;;;1.05;0.95;;;;;;;11.83;45.59;94576.53;5028764;28;20194;-60
2023/03/05 01:12:36;;;;;;;0.17;0.17;;;;;;;12.04;44.71;94576.16;5030859;28;20696;-60
2023/03/05 01:15:04;;;;;;;5.43;1.03;;;;;;;11.89;45.55;94575.47;5028328;28;20531;-59
2023/03/05 01:17:31;;;;;;;0.10;0.10;;;;;;;11.89;44.61;94559.72;5030318;28;20448;-61
2023/03/05 01:19:58;;;;;;;0.23;0.23;;;;;;;12.09;45.03;94576.13;5030746;28;20436;-58
2023/03/05 01:22:25;;;;;;;0.40;0.40;;;;;;;12.04;44.70;94578.00;5017725;28;20786;-60
2023/03/05 01:24:51;;;;;;;0.20;0.20;;;;;;;11.59;44.96;94560.59;5027999;28;20444;-59
2023/03/05 01:27:18;;;;;;;0.23;0.13;;;;;;;11.84;44.72;94578.13;5029392;28;20527;-60
2023/03/05 01:29:45;;;;;;;0.73;0.73;;;;;;;11.90;44.96;94566.50;5030599;28;21005;-59
2023/03/05 01:32:12;;;;;;;0.00;0.00;;;;;;;11.94;44.96;94570.16;5029022;28;20459;-60
2023/03/05 01:34:40;;;;;;;1.33;1.30;;;;;;;12.04;44.12;94568.28;5020172;28;20456;-59
2023/03/05 01:37:08;;;;;;;0.60;0.60;;;;;;;12.00;44.43;94558.59;5029284;28;20517;-60
2023/03/05 01:39:35;;;;;;;0.97;0.67;;;;;;;11.95;44.04;94559.41;5024231;28;20968;-59
2023/03/05 01:42:03;;;;;;;0.77;0.77;;;;;;;11.99;44.33;94559.63;5027420;28;20494;-61
2023/03/05 01:44:31;;;;;;;0.73;0.73;;;;;;;11.89;44.42;94562.34;5028560;28;20472;-59
2023/03/05 01:46:58;;;;;;;1.30;1.13;;;;;;;11.77;44.41;94561.88;5027488;28;20456;-59
2023/03/05 01:49:34;;;;;;;1.27;1.15;;;;;;;11.42;44.90;94565.41;5028639;28;20972;-60
2023/03/05 01:52:10;;;;;;;1.23;1.13;;;;;;;11.82;43.89;94564.47;5020867;28;20204;-60
2023/03/05 01:55:02;;;;;;;0.37;0.37;;;;;;;11.17;44.96;94563.63;5029310;28;20445;-61
2023/03/05 01:57:37;;;;;;;0.43;0.43;;;;;;;11.21;45.09;94548.16;5027581;28;20448;-60
2023/03/05 02:00:20;;;;;;;2.40;0.97;;;;;;;11.20;44.66;94555.22;5028289;28;20448;-60
2023/03/05 02:02:50;;;;;;;0.17;0.17;;;;;;;11.46;44.32;94563.03;5028728;28;20494;-61
2023/03/05 02:05:29;;;;;;;1.43;1.33;;;;;;;11.56;44.58;94560.34;5026647;28;20510;-60
2023/03/05 02:07:59;;;;;;;1.60;1.30;;;;;;;11.88;43.67;94564.16;5027841;28;20616;-60
2023/03/05 02:10:29;;;;;;;1.47;1.17;;;;;;;11.81;43.85;94561.06;5029938;28;20521;-60
2023/03/05 02:12:59;;;;;;;0.30;0.30;;;;;;;12.12;43.19;94566.91;5028038;28;20459;-60
2023/03/05 02:15:28;;;;;;;0.22;0.20;;;;;;;12.16;43.26;94560.84;5017960;28;20229;-59
2023/03/05 02:17:55;;;;;;;1.20;1.00;;;;;;;12.11;42.93;94553.03;5025102;28;20280;-60
2023/03/05 02:20:27;;;;;;;0.37;0.37;;;;;;;12.27;42.52;94566.81;5028890;28;20443;-59
2023/03/05 02:22:55;;;;;;;0.30;0.30;;;;;;;12.31;42.83;94552.09;5029195;28;20454;-61
2023/03/05 02:25:27;;;;;;;0.10;0.10;;;;;;;12.28;42.67;94565.00;5025789;28;20514;-59
2023/03/05 02:28:00;;;;;;;0.67;0.67;;;;;;;12.27;42.33;94558.94;5060486;28;20459;-60
2023/03/05 02:30:28;;;;;;;0.50;0.50;;;;;;;12.37;42.47;94561.47;5029099;28;20458;-60
2023/03/05 02:32:55;;;;;;;0.30;0.30;;;;;;;12.38;42.30;94563.06;5029183;28;20986;-61
2023/03/05 02:35:22;;;;;;;3.27;1.40;;;;;;;12.04;42.22;94564.88;5027377;28;20448;-60
2023/03/05 02:37:49;;;;;;;0.10;0.10;;;;;;;11.90;42.62;94561.25;5029127;28;20976;-58
2023/03/05 02:40:16;;;;;;;3.73;0.87;;;;;;;11.66;43.02;94560.34;5032903;28;20455;-61
2023/03/05 02:42:43;;;;;;;0.20;0.20;;;;;;;11.58;43.52;94558.25;5027339;28;20482;-60
2023/03/05 02:45:12;;;;;;;0.57;0.57;;;;;;;11.24;43.88;94551.03;5028559;28;20558;-62
2023/03/05 02:47:39;;;;;;;0.10;0.10;;;;;;;12.01;42.58;94562.78;5027389;28;20510;-59
2023/03/05 02:50:10;;;;;;;0.40;0.40;;;;;;;11.94;42.52;94560.47;5029140;28;20648;-59
2023/03/05 02:52:38;;;;;;;0.40;0.40;;;;;;;11.31;43.37;94557.84;5027484;28;20193;-60
2023/03/05 02:55:10;;;;;;;0.70;0.50;;;;;;;11.65;43.50;94574.53;5015652;28;20978;-59
2023/03/05 02:57:38;;;;;;;0.32;0.32;;;;;;;11.52;43.21;94575.06;5060215;28;20444;-59
2023/03/05 03:00:06;;;;;;;0.03;0.03;;;;;;;10.89;44.73;94561.59;5025888;28;20293;-59
2023/03/05 03:02:33;;;;;;;0.30;0.30;;;;;;;11.10;45.02;94563.13;5026656;28;20455;-59
2023/03/05 03:05:01;;;;;;;0.00;0.00;;;;;;;11.39;44.54;94565.94;5031155;28;20526;-59
2023/03/05 03:07:28;;;;;;;1.33;1.17;;;;;;;11.04;45.24;94566.03;5033060;28;20444;-60
2023/03/05 03:09:54;;;;;;;1.67;1.57;;;;;;;10.85;45.29;94560.56;5033773;28;20193;-60
2023/03/05 03:12:22;;;;;;;5.25;2.33;;;;;;;10.82;45.81;94563.69;5032743;28;20525;-59
2023/03/05 03:14:48;;;;;;;1.40;1.27;;;;;;;10.97;45.69;94563.69;5030368;28;20622;-60
2023/03/05 03:17:17;;;;;;;0.60;0.60;;;;;;;10.77;45.54;94571.56;5033387;28;20887;-62
2023/03/05 03:19:45;;;;;;;0.10;0.10;;;;;;;10.78;45.79;94567.13;5033903;28;20523;-59
2023/03/05 03:22:14;;;;;;;1.13;1.10;;;;;;;11.06;45.41;94569.16;5032451;28;20475;-59
2023/03/05 03:24:42;;;;;;;1.80;1.70;;;;;;;10.98;45.11;94570.50;5031046;28;20221;-59
2023/03/05 03:27:09;;;;;;;0.75;0.75;;;;;;;10.40;46.37;94578.91;5031774;28;20451;-60
2023/03/05 03:29:36;;;;;;;0.20;0.20;;;;;;;10.91;45.55;94572.59;5032681;28;20197;-59
2023/03/05 03:32:03;;;;;;;5.03;1.05;;;;;;;10.47;46.03;94584.69;5032146;28;20872;-60
2023/03/05 03:34:30;;;;;;;1.02;0.40;;;;;;;10.18;46.46;94575.78;5032208;28;20196;-60
2023/03/05 03:36:57;;;;;;;0.22;0.22;;;;;;;10.59;45.66;94576.56;5031057;28;20197;-59
2023/03/05 03:39:24;;;;;;;1.73;0.73;;;;;;;10.10;47.08;94573.66;5029181;28;20593;-59
2023/03/05 03:41:52;;;;;;;0.65;0.43;;;;;;;9.59;47.80;94566.69;5031370;28;20229;-60
2023/03/05 03:44:20;;;;;;;0.20;0.20;;;;;;;10.04;47.42;94564.97;5030503;28;20257;-61
2023/03/05 03:46:48;;;;;;;1.75;1.67;;;;;;;9.96;47.55;94567.34;5031800;28;20205;-59
2023/03/05 03:49:18;;;;;;;1.02;0.85;;;;;;;10.52;46.38;94555.09;5029793;28;20252;-61
2023/03/05 03:51:46;;;;;;;0.68;0.68;;;;;;;9.80;46.94;94584.00;5031897;28;20232;-61
2023/03/05 03:54:15;;;;;;;1.40;0.70;;;;;;;10.47;46.07;94569.00;5032071;28;20285;-60
2023/03/05 03:56:42;;;;;;;2.05;1.85;;;;;;;10.66;45.59;94571.84;5020368;28;20198;-58
2023/03/05 03:59:09;;;;;;;1.10;1.00;;;;;;;10.31;46.21;94580.47;5031419;28;20652;-60
2023/03/05 04:01:36;;;;;;;0.45;0.45;;;;;;;10.13;46.61;94573.13;5031867;28;20189;-60
2023/03/05 04:04:04;;;;;;;1.45;0.82;;;;;;;10.20;46.66;94574.44;5037361;28;20228;-59
2023/03/05 04:06:32;;;;;;;3.40;1.88;;;;;;;10.55;45.90;94571.06;5034023;28;20201;-60
2023/03/05 04:08:59;;;;;;;0.85;0.85;;;;;;;9.83;46.89;94573.06;5031835;28;20721;-61
2023/03/05 04:11:25;;;;;;;0.32;0.32;;;;;;;10.06;46.93;94580.41;5029420;28;20193;-59
2023/03/05 04:13:52;;;;;;;0.40;0.40;;;;;;;9.96;46.31;94583.03;5028170;28;20292;-59
2023/03/05 04:16:22;;;;;;;1.95;1.85;;;;;;;9.85;47.18;94576.97;5031206;28;20223;-59
2023/03/05 04:18:49;;;;;;;0.40;0.40;;;;;;;10.26;46.30;94583.09;5031700;28;20641;-60
2023/03/05 04:21:16;;;;;;;0.28;0.25;;;;;;;9.55;47.62;94576.09;5031491;28;20197;-59
2023/03/05 04:23:43;;;;;;;1.10;0.63;;;;;;;9.97;46.61;94574.13;5031084;28;20245;-61
2023/03/05 04:26:10;;;;;;;0.77;0.77;;;;;;;10.03;46.30;94573.09;5017979;28;20556;-61
2023/03/05 04:28:37;;;;;;;1.05;1.02;;;;;;;10.21;46.06;94577.88;5026873;28;20646;-59
2023/03/05 04:31:04;;;;;;;0.60;0.60;;;;;;;10.01;45.87;94572.56;5031000;28;20624;-60
2023/03/05 04:33:31;;;;;;;0.10;0.10;;;;;;;10.04;46.28;94575.44;5031324;28;20250;-60
2023/03/05 04:35:58;;;;;;;1.05;0.70;;;;;;;9.51;47.21;94567.97;5030746;28;20263;-60
2023/03/05 04:38:25;;;;;;;2.15;1.92;;;;;;;9.55;46.99;94568.25;5034167;28;20197;-59
2023/03/05 04:40:51;;;;;;;0.63;0.45;;;;;;;9.59;46.80;94569.31;5028712;28;20189;-60
2023/03/05 04:43:18;;;;;;;0.15;0.15;;;;;;;9.09;47.99;94567.25;5027944;28;20258;-60
2023/03/05 04:45:45;;;;;;;0.43;0.43;;;;;;;9.37;47.39;94571.31;5029001;28;20197;-60
2023/03/05 04:48:12;;;;;;;1.98;1.35;;;;;;;9.40;47.80;94568.97;5029762;28;20280;-61
2023/03/05 04:50:39;;;;;;;0.13;0.13;;;;;;;9.22;47.80;94566.81;5031105;28;20720;-61
2023/03/05 04:53:06;;;;;;;0.10;0.10;;;;;;;9.52;46.96;94560.94;5030473;28;20304;-61
2023/03/05 04:55:33;;;;;;;0.10;0.10;;;;;;;9.39;46.84;94569.25;5030590;28;20217;-60
2023/03/05 04:58:01;;;;;;;0.20;0.20;;;;;;;9.53;46.52;94563.28;5028980;28;20197;-61
2023/03/05 05:00:28;;;;;;;0.63;0.63;;;;;;;9.88;46.35;94570.44;5030460;28;20577;-61
2023/03/05 05:02:55;;;;;;;0.45;0.45;;;;;;;9.83;46.12;94562.59;5028053;28;20308;-60
2023/03/05 05:05:24;;;;;;;1.75;1.65;;;;;;;9.91;46.44;94559.44;5030647;28;20209;-59
2023/03/05 05:07:56;;;;;;;1.85;1.45;;;;;;;9.95;46.12;94570.97;5030255;28;20569;-60
2023/03/05 05:10:25;;;;;;;0.30;0.30;;;;;;;10.03;46.39;94570.47;5030592;28;20209;-60
2023/03/05 05:12:51;;;;;;;5.45;2.45;;;;;;;9.99;46.29;94564.97;5028817;28;20555;-61
2023/03/05 05:15:19;;;;;;;0.68;0.68;;;;;;;9.74;46.23;94564.13;5029120;28;20193;-59
2023/03/05 05:17:46;;;;;;;1.75;1.65;;;;;;;10.05;45.76;94569.16;5030572;28;20284;-59
2023/03/05 05:20:15;;;;;;;0.00;0.00;;;;;;;10.10;45.57;94578.91;5028558;28;20255;-60
2023/03/05 05:22:42;;;;;;;0.68;0.68;;;;;;;10.25;45.20;94578.94;5030153;28;20204;-59
2023/03/05 05:25:09;;;;;;;5.07;1.27;;;;;;;9.37;47.08;94585.19;5029500;28;20233;-61
2023/03/05 05:27:39;;;;;;;0.32;0.32;;;;;;;9.71;46.24;94575.88;5029434;28;20201;-61
2023/03/05 05:30:06;;;;;;;0.20;0.20;;;;;;;9.71;46.42;94580.31;5027364;28;20199;-60
2023/03/05 05:32:34;;;;;;;0.63;0.63;;;;;;;9.38;46.66;94585.97;5029818;28;20205;-60
2023/03/05 05:35:01;;;;;;;0.20;0.15;;;;;;;9.27;46.93;94589.59;5027184;28;20193;-60
2023/03/05 05:37:28;;;;;;;2.03;1.88;;;;;;;9.32;46.80;94587.00;5027132;28;20189;-59
2023/03/05 05:39:55;;;;;;;1.50;1.25;;;;;;;9.30;46.81;94579.41;5031590;28;20370;-60
2023/03/05 05:42:23;;;;;;;0.40;0.38;;;;;;;10.06;45.07;94583.84;5030186;28;20331;-60
2023/03/05 05:44:50;;;;;;;1.27;1.05;;;;;;;9.62;46.08;94589.72;5030067;28;20776;-59
2023/03/05 05:47:17;;;;;;;4.65;2.13;;;;;;;9.58;45.79;94601.75;5030300;28;20291;-61
2023/03/05 05:49:45;;;;;;;0.68;0.68;;;;;;;9.62;45.24;94590.50;5027479;28;20208;-61
2023/03/05 05:52:13;;;;;;;0.17;0.17;;;;;;;10.23;44.41;94588.88;5027626;28;20201;-59
2023/03/05 05:54:39;;;;;;;18.55;2.13;;;;;;;10.45;44.22;94581.56;5030892;28;20189;-60
2023/03/05 05:57:06;;;;;;;0.65;0.65;;;;;;;10.19;44.86;94593.03;5026569;28;20240;-58
2023/03/05 05:59:33;;;;;;;2.15;1.17;;;;;;;9.78;44.95;94596.59;5026939;28;20602;-59
2023/03/05 06:02:00;;;;;;;0.75;0.75;;;;;;;9.73;44.75;94599.97;5029557;28;20730;-60
2023/03/05 06:04:27;;;;;;;0.22;0.22;;;;;;;9.52;45.11;94603.56;5029930;28;20253;-60
2023/03/05 06:06:54;;;;;;;1.07;0.97;;;;;;;9.50;45.35;94599.63;5027550;28;20205;-60
2023/03/05 06:09:21;;;;;;;0.55;0.47;;;;;;;9.25;45.50;94602.91;5029072;28;20448;-60
2023/03/05 06:11:49;;;;;;;0.65;0.65;;;;;;;10.04;44.33;94611.31;5029121;28;20205;-59
2023/03/05 06:14:16;;;;;;;1.88;1.75;;;;;;;9.55;44.18;94608.28;5029846;28;20205;-61
2023/03/05 06:16:42;;;;;;;0.50;0.50;;;;;;;9.71;44.27;94606.50;5029745;28;20905;-61
2023/03/05 06:19:13;;;;;;;1.25;1.17;;;;;;;10.21;43.09;94601.44;5030087;28;20211;-60
2023/03/05 06:21:42;;;;;;;0.00;0.00;;;;;;;9.95;43.63;94602.38;5028131;28;20625;-60
2023/03/05 06:24:09;;;;;;;3.45;2.50;;;;;;;9.92;43.42;94602.91;5023713;28;20910;-60
2023/03/05 06:26:37;;;;;;;0.52;0.52;;;;;;;10.32;42.51;94610.88;5029602;28;20267;-59
2023/03/05 06:29:04;;;;;;;0.00;0.00;;;;;;;10.32;42.64;94613.50;5029858;28;20255;-60
2023/03/05 06:31:31;;;;;;;0.68;0.57;;;;;;;10.48;41.83;94612.47;5028850;28;20251;-62
2023/03/05 06:34:02;;;;;;;2.70;2.10;;;;;;;10.41;41.91;94611.94;5029566;28;20289;-60
2023/03/05 06:36:29;;;;;;;0.38;0.38;;;;;;;10.70;41.30;94605.13;5028184;28;20846;-60
2023/03/05 06:38:57;;;;;;;2.72;1.52;;;;;;;10.55;41.38;94617.44;5026128;28;20890;-61
2023/03/05 06:41:30;;;;;;;0.70;0.70;;;;;;;10.71;41.42;94605.94;5028644;28;20771;-60
2023/03/05 06:44:01;;;;;;;0.43;0.43;;;;;;;10.75;41.75;94618.22;5025613;28;20452;-59
2023/03/05 06:46:31;;;;;;;0.03;0.03;;;;;;;10.49;41.10;94614.00;5028791;28;20271;-59
2023/03/05 06:49:00;;;;;;;1.25;1.15;;;;;;;10.46;41.26;94625.03;5029436;28;20448;-60
2023/03/05 06:51:33;;;;;;;0.10;0.10;;;;;;;10.41;41.25;94619.00;5028910;28;20254;-61
2023/03/05 06:54:05;;;;;;;0.00;0.00;;;;;;;10.62;41.06;94623.97;5026957;28;20201;-60
2023/03/05 06:56:35;;;;;;;0.50;0.50;;;;;;;10.70;40.77;94625.28;5028294;28;20231;-60
2023/03/05 06:59:02;;;;;;;1.60;1.08;;;;;;;10.77;40.67;94626.63;5029305;28;20692;-59
2023/03/05 07:01:29;;;;;;;0.17;0.17;;;;;;;10.40;40.65;94623.44;5025454;28;20350;-62
2023/03/05 07:03:59;;;;;;;2.83;1.70;;;;;;;10.51;40.10;94622.41;5026970;28;21714;-60
2023/03/05 07:06:26;;;;;;;0.27;0.27;;;;;;;10.59;39.93;94624.50;5020090;28;20459;-59
2023/03/05 07:08:57;;;;;;;0.83;0.67;;;;;;;11.00;40.01;94626.06;5029756;28;20974;-59
2023/03/05 07:11:24;;;;;;;0.33;0.30;;;;;;;10.85;40.24;94618.22;5028813;28;20892;-60
2023/03/05 07:13:52;;;;;;;0.10;0.10;;;;;;;10.84;39.21;94619.25;5028783;28;20450;-58
2023/03/05 07:16:25;;;;;;;0.77;0.77;;;;;;;10.86;39.60;94622.41;5028318;28;20444;-60
2023/03/05 07:18:52;;;;;;;4.23;2.00;;;;;;;11.51;39.26;94621.53;5029350;28;20443;-63
2023/03/05 07:21:22;;;;;;;1.47;1.27;;;;;;;11.62;39.15;94619.66;5025451;28;20483;-60
2023/03/05 07:23:49;;;;;;;8.40;1.77;;;;;;;11.35;38.46;94621.84;5028842;28;20471;-62
2023/03/05 07:26:16;;;;;;;1.40;1.30;;;;;;;11.36;38.38;94626.00;5028258;28;20487;-61
2023/03/05 07:28:43;;;;;;;1.03;0.97;;;;;;;11.73;38.17;94608.09;5028894;28;20531;-60
2023/03/05 07:31:25;;;;;;;0.73;0.27;;;;;;;11.56;37.93;94623.34;5028010;28;20547;-61
2023/03/05 07:33:53;;;;;;;0.60;0.60;;;;;;;12.01;38.01;94616.09;5029047;28;20478;-60
2023/03/05 07:36:22;;;;;;;0.70;0.70;;;;;;;11.63;38.38;94616.75;5027394;28;20795;-60
2023/03/05 07:38:50;;;;;;;0.00;0.00;;;;;;;10.56;39.15;94619.81;5025134;28;21065;-61
2023/03/05 07:41:18;;;;;;;0.37;0.37;;;;;;;11.07;39.74;94610.88;5028527;28;20562;-60
2023/03/05 07:43:47;;;;;;;0.53;0.53;;;;;;;10.86;39.23;94625.03;5029054;28;20444;-62
2023/03/05 07:46:20;;;;;;;0.40;0.40;;;;;;;11.34;39.15;94622.88;5029043;28;20537;-60
2023/03/05 07:48:48;;;;;;;0.53;0.53;;;;;;;11.20;39.05;94626.03;5017414;28;20471;-61
2023/03/05 07:51:18;;;;;;;0.13;0.13;;;;;;;10.95;39.41;94618.22;5029380;28;20969;-60
2023/03/05 07:53:47;;;;;;;17.07;1.37;;;;;;;11.35;39.07;94616.59;5028404;28;21024;-59
2023/03/05 07:56:22;;;;;;;0.40;0.40;;;;;;;10.85;40.07;94625.31;5032288;28;20864;-62
2023/03/05 07:58:49;;;;;;;0.53;0.53;;;;;;;10.80;40.30;94625.31;5022015;28;20445;-58
2023/03/05 08:01:16;;;;;;;0.50;0.50;;;;;;;10.91;39.99;94624.25;5032108;28;20474;-61
2023/03/05 08:03:43;;;;;;;0.40;0.40;;;;;;;10.88;40.32;94612.47;5033071;28;20452;-60
2023/03/05 08:06:11;;;;;;;0.27;0.27;;;;;;;11.22;39.50;94623.94;5031506;28;20997;-58
2023/03/05 08:08:38;;;;;;;1.93;1.30;;;;;;;11.07;39.55;94626.59;5030449;28;20458;-60
2023/03/05 08:11:08;;;;;;;0.47;0.47;;;;;;;11.08;40.21;94628.16;5030715;28;20459;-61
2023/03/05 08:13:35;;;;;;;1.90;1.23;;;;;;;11.26;39.80;94621.56;5027168;28;20541;-60
2023/03/05 08:16:08;;;;;;;0.20;0.20;;;;;;;11.31;39.61;94610.28;5030224;28;20539;-60
2023/03/05 08:18:35;;;;;;;5.10;2.33;;;;;;;11.29;39.95;94622.88;5033538;28;20443;-60
2023/03/05 08:21:02;;;;;;;0.50;0.50;;;;;;;10.53;40.85;94628.16;5032082;28;20440;-61
2023/03/05 08:23:30;;;;;;;0.90;0.80;;;;;;;10.75;41.12;94628.72;5034471;28;20480;-60
2023/03/05 08:25:56;;;;;;;2.23;1.13;;;;;;;10.27;41.75;94626.59;5033392;28;20492;-61
2023/03/05 08:28:23;;;;;;;1.45;1.35;;;;;;;10.76;41.31;94625.06;5031561;28;20486;-60
2023/03/05 08:30:50;;;;;;;2.05;1.10;;;;;;;11.27;40.29;94619.75;5031363;28;20243;-62
2023/03/05 08:33:17;;;;;;;0.10;0.10;;;;;;;11.24;40.43;94616.59;5030782;28;20194;-60
2023/03/05 08:35:44;;;;;;;1.75;0.65;;;;;;;10.77;41.46;94616.13;5030379;28;20487;-60
2023/03/05 08:38:11;;;;;;;0.43;0.43;;;;;;;10.94;40.92;94621.91;5029868;28;20185;-59
2023/03/05 08:40:38;;;;;;;0.80;0.80;;;;;;;11.26;40.39;94612.94;5031123;28;20459;-61
2023/03/05 08:43:06;;;;;;;0.40;0.40;;;;;;;10.43;42.13;94617.69;5028713;28;20868;-62
2023/03/05 08:45:32;;;;;;;1.53;1.43;;;;;;;10.23;42.31;94604.56;5030732;28;20240;-61
2023/03/05 08:47:59;;;;;;;0.67;0.53;;;;;;;10.52;42.21;94608.28;5030415;28;20448;-60
2023/03/05 08:50:26;;;;;;;0.77;0.77;;;;;;;10.92;41.39;94605.66;5030813;28;20452;-60
2023/03/05 08:52:55;;;;;;;0.75;0.75;;;;;;;11.11;41.51;94600.63;5030941;28;20934;-60
2023/03/05 08:55:22;;;;;;;3.30;1.70;;;;;;;11.35;40.65;94591.13;5030736;28;20189;-58
2023/03/05 08:57:49;;;;;;;3.83;2.03;;;;;;;10.76;41.47;94587.56;5026715;28;21362;-61
2023/03/05 09:00:16;;;;;;;0.10;0.10;;;;;;;10.50;41.77;94592.03;5030422;28;20470;-61
2023/03/05 09:02:43;;;;;;;4.20;0.90;;;;;;;10.89;40.89;94590.41;5030279;28;20243;-60
2023/03/05 09:05:10;;;;;;;1.37;1.27;;;;;;;11.06;40.33;94587.50;5031005;28;20702;-60
2023/03/05 09:07:37;;;;;;;0.87;0.87;;;;;;;11.18;40.45;94573.06;5029778;28;20782;-63
2023/03/05 09:10:05;;;;;;;0.67;0.67;;;;;;;11.05;40.15;94576.25;5027400;28;20782;-60
2023/03/05 09:12:31;;;;;;;0.20;0.20;;;;;;;10.86;39.76;94583.09;5018369;28;20480;-59
2023/03/05 09:14:58;;;;;;;0.73;0.37;;;;;;;11.46;41.96;94576.16;5021805;28;20193;-60
2023/03/05 09:17:25;;;;;;;0.23;0.23;;;;;;;11.61;38.24;94562.94;5029561;28;20444;-57
2023/03/05 09:19:52;;;;;;;0.37;0.37;;;;;;;11.06;38.75;94566.53;5028516;28;20444;-60
2023/03/05 09:22:19;;;;;;;0.63;0.63;;;;;;;11.49;38.58;94572.97;5016242;28;20439;-61
2023/03/05 09:24:47;;;;;;;4.23;2.00;;;;;;;12.20;38.45;94567.13;5030440;28;20452;-60
2023/03/05 09:27:13;;;;;;;1.70;1.60;;;;;;;11.86;37.30;94571.53;5029712;28;20531;-61
2023/03/05 09:29:40;;;;;;;0.00;0.00;;;;;;;12.02;36.89;94565.13;5027047;28;20497;-62
2023/03/05 09:32:09;;;;;;;1.27;1.03;;;;;;;11.79;38.22;94559.75;5031240;28;20443;-65
2023/03/05 09:34:36;;;;;;;0.97;0.93;;;;;;;11.48;37.05;94558.31;5035327;28;20498;-63
2023/03/05 09:37:03;;;;;;;0.37;0.37;;;;;;;11.80;37.14;94558.72;5030182;28;20466;-62
2023/03/05 09:39:30;;;;;;;1.23;1.17;;;;;;;11.62;36.54;94556.66;5031558;28;20517;-61
2023/03/05 09:42:27;;;;;;;0.73;0.73;;;;;;;11.81;36.13;94562.88;5027489;28;20545;-61
2023/03/05 09:45:18;;;;;;;0.70;0.70;;;;;;;11.29;37.07;94565.19;5029115;28;20440;-62
2023/03/05 09:48:00;;;;;;;2.00;0.93;;;;;;;11.97;36.51;94551.28;5027612;28;20452;-61
2023/03/05 09:50:40;;;;;;;0.77;0.77;;;;;;;11.78;36.28;94555.56;5018213;28;20452;-63
2023/03/05 09:53:19;;;;;;;0.47;0.47;;;;;;;12.17;36.63;94545.91;5030597;28;20886;-62
2023/03/05 09:55:51;;;;;;;1.43;1.07;;;;;;;11.89;35.63;94544.75;5036366;28;20446;-64
2023/03/05 09:58:21;;;;;;;1.67;1.57;;;;;;;12.04;35.14;94539.38;5029007;28;20543;-63
2023/03/05 10:00:53;;;;;;;1.07;1.07;;;;;;;12.30;35.23;94529.47;5028757;28;20443;-64
2023/03/05 10:03:33;;;;;;;1.50;1.40;;;;;;;12.22;34.82;94530.09;5026709;28;20511;-63
2023/03/05 10:06:23;;;;;;;0.30;0.30;;;;;;;13.30;33.57;94527.81;5028854;28;20467;-63
2023/03/05 10:09:08;;;;;;;1.53;0.87;;;;;;;13.86;32.64;94518.13;5027350;28;20459;-64
2023/03/05 10:11:49;;;;;;;1.27;1.17;;;;;;;14.08;31.70;94518.34;5026531;28;20451;-63
2023/03/05 10:14:28;;;;;;;1.13;1.03;;;;;;;13.38;32.24;94500.06;5032025;28;20456;-64
2023/03/05 10:16:57;;;;;;;0.77;0.77;;;;;;;13.14;33.02;94506.13;5025087;28;20444;-66
2023/03/05 10:19:27;;;;;;;1.17;1.17;;;;;;;14.02;32.36;94500.25;5029058;28;20532;-64
2023/03/05 10:22:20;;;;;;;1.63;0.77;;;;;;;13.95;31.84;94498.00;5015784;28;20448;-65
2023/03/05 10:25:18;;;;;;;1.17;1.03;;;;;;;13.80;31.78;94492.13;5024235;28;20501;-63
2023/03/05 10:27:50;;;;;;;1.70;0.93;;;;;;;13.14;32.10;94490.34;5028353;28;20443;-65
2023/03/05 10:30:45;;;;;;;0.10;0.10;;;;;;;13.36;32.45;94481.91;5027189;28;20443;-62
2023/03/05 10:33:22;;;;;;;0.20;0.20;;;;;;;13.74;31.37;94472.22;5026508;28;20444;-64
2023/03/05 10:35:54;;;;;;;1.00;0.93;;;;;;;14.17;32.01;94468.41;5027808;28;20829;-64
2023/03/05 10:38:27;;;;;;;0.20;0.20;;;;;;;14.32;30.66;94470.06;5028903;28;21045;-62
2023/03/05 10:40:54;;;;;;;1.10;0.73;;;;;;;13.92;31.10;94469.56;5029294;28;20864;-61
2023/03/05 10:43:40;;;;;;;0.73;0.73;;;;;;;13.76;30.93;94462.16;5035583;28;20474;-63
2023/03/05 10:46:31;;;;;;;0.83;0.83;;;;;;;14.03;30.79;94457.81;5027794;28;20530;-63
2023/03/05 10:49:16;;;;;;;0.20;0.20;;;;;;;14.09;30.96;94466.44;5028946;28;20450;-66
2023/03/05 10:52:00;;;;;;;1.20;0.67;;;;;;;13.30;32.03;94469.13;5028497;28;20448;-67
2023/03/05 10:54:30;;;;;;;1.43;1.33;;;;;;;12.96;31.05;94464.75;5029188;28;20439;-66
2023/03/05 10:57:20;;;;;;;1.87;1.30;;;;;;;13.76;30.60;94449.00;5028247;28;20440;-65
2023/03/05 10:59:54;;;;;;;0.13;0.13;;;;;;;14.51;30.80;94439.94;5028419;28;21005;-66
2023/03/05 11:02:22;;;;;;;1.40;1.03;;;;;;;14.70;29.54;94440.66;5025021;28;20500;-63
2023/03/05 11:04:50;;;;;;;0.70;0.70;;;;;;;13.95;30.00;94444.53;5028570;28;20534;-64
2023/03/05 11:07:17;;;;;;;1.50;1.03;;;;;;;13.27;30.83;94438.88;5027776;28;20479;-65
2023/03/05 11:10:01;;;;;;;0.77;0.77;;;;;;;13.77;30.66;94432.16;5039363;28;20435;-65
2023/03/05 11:12:37;;;;;;;0.50;0.50;;;;;;;12.95;31.66;94430.84;5017489;28;20450;-65
2023/03/05 11:15:10;;;;;;;0.93;0.73;;;;;;;13.36;31.24;94431.16;5026983;28;20448;-66
2023/03/05 11:17:42;;;;;;;0.77;0.77;;;;;;;13.17;31.64;94424.00;5028128;28;20454;-66
2023/03/05 11:20:29;;;;;;;0.87;0.63;;;;;;;13.39;31.01;94420.06;5028636;28;20914;-65
2023/03/05 11:23:14;;;;;;;0.20;0.20;;;;;;;14.26;30.44;94414.00;5028274;28;20456;-64
2023/03/05 11:25:58;;;;;;;14.77;1.10;;;;;;;14.34;31.17;94405.47;5032522;28;20475;-64
2023/03/05 11:28:37;;;;;;;0.93;0.93;;;;;;;14.51;31.00;94407.50;5030476;28;20454;-65
2023/03/05 11:31:19;;;;;;;0.20;0.20;;;;;;;14.44;31.32;94410.53;5030498;28;20452;-65
2023/03/05 11:33:54;;;;;;;2.10;1.57;;;;;;;14.54;31.88;94410.38;5021480;28;20447;-70
2023/03/05 11:36:25;;;;;;;1.33;1.23;;;;;;;14.95;30.16;94410.38;5031405;28;20987;-66
2023/03/05 11:38:58;;;;;;;0.57;0.57;;;;;;;14.76;30.38;94399.91;5032552;28;20443;-64
2023/03/05 11:41:52;;;;;;;1.37;1.27;;;;;;;15.10;29.88;94392.41;5025020;28;20498;-63
2023/03/05 11:44:33;;;;;;;0.50;0.50;;;;;;;14.12;30.04;94386.84;5023380;28;20854;-62
2023/03/05 11:47:27;;;;;;;0.10;0.10;;;;;;;14.45;29.70;94383.09;5029768;28;20506;-63